sensor_id;sensor_type;location;lat;lon;timestamp;pressure;altitude;pressure_sealevel;temperature;humidity
61128;BME280;47013;42.664;23.242;2022-09-12T00:00:26;93867.94;;;15.20;91.91
61128;BME280;47013;42.664;23.242;2022-09-12T00:02:53;93878.88;;;15.20;90.63
61128;BME280;47013;42.664;23.242;2022-09-12T00:05:18;93874.28;;;15.17;90.35
61128;BME280;47013;42.664;23.242;2022-09-12T00:07:44;93869.16;;;15.19;90.69
61128;BME280;47013;42.664;23.242;2022-09-12T00:10:09;93874.72;;;15.15;90.14
61128;BME280;47013;42.664;23.242;2022-09-12T00:12:34;93882.88;;;14.90;90.11
61128;BME280;47013;42.664;23.242;2022-09-12T00:15:00;93885.81;;;14.95;90.25
61128;BME280;47013;42.664;23.242;2022-09-12T00:17:25;93889.75;;;14.94;88.49
61128;BME280;47013;42.664;23.242;2022-09-12T00:19:51;93896.63;;;14.86;87.74
61128;BME280;47013;42.664;23.242;2022-09-12T00:22:17;93891.19;;;14.86;88.58
61128;BME280;47013;42.664;23.242;2022-09-12T00:24:42;93901.88;;;14.93;89.92
61128;BME280;47013;42.664;23.242;2022-09-12T00:27:07;93884.41;;;14.91;87.59
61128;BME280;47013;42.664;23.242;2022-09-12T00:29:33;93885.09;;;14.66;89.02
61128;BME280;47013;42.664;23.242;2022-09-12T00:31:58;93882.63;;;14.71;90.23
61128;BME280;47013;42.664;23.242;2022-09-12T00:34:24;93886.31;;;14.65;89.27
61128;BME280;47013;42.664;23.242;2022-09-12T00:36:49;93882.47;;;14.62;89.47
61128;BME280;47013;42.664;23.242;2022-09-12T00:39:15;93887.28;;;14.71;90.22
61128;BME280;47013;42.664;23.242;2022-09-12T00:41:42;93879.91;;;14.71;89.16
61128;BME280;47013;42.664;23.242;2022-09-12T00:46:49;93879.94;;;14.55;89.21
61128;BME280;47013;42.664;23.242;2022-09-12T00:52:12;93898.16;;;14.58;89.39
61128;BME280;47013;42.664;23.242;2022-09-12T00:57:36;93878.06;;;14.52;88.05
61128;BME280;47013;42.664;23.242;2022-09-12T01:00:11;93879.81;;;14.30;88.75
61128;BME280;47013;42.664;23.242;2022-09-12T01:02:42;93870.56;;;14.11;89.49
61128;BME280;47013;42.664;23.242;2022-09-12T01:05:08;93869.75;;;13.98;90.64
61128;BME280;47013;42.664;23.242;2022-09-12T01:07:36;93869.16;;;14.06;90.09
61128;BME280;47013;42.664;23.242;2022-09-12T01:10:03;93869.97;;;14.20;89.81
61128;BME280;47013;42.664;23.242;2022-09-12T01:12:30;93874.13;;;14.24;89.27
61128;BME280;47013;42.664;23.242;2022-09-12T01:14:55;93868.56;;;14.28;89.42
61128;BME280;47013;42.664;23.242;2022-09-12T01:17:23;93872.06;;;14.28;88.20
61128;BME280;47013;42.664;23.242;2022-09-12T01:28:02;93876.75;;;13.82;88.60
61128;BME280;47013;42.664;23.242;2022-09-12T01:30:53;93870.53;;;13.66;90.53
61128;BME280;47013;42.664;23.242;2022-09-12T01:33:33;93870.19;;;13.80;90.57
61128;BME280;47013;42.664;23.242;2022-09-12T01:36:40;93871.97;;;13.86;89.82
61128;BME280;47013;42.664;23.242;2022-09-12T01:39:24;93866.75;;;13.92;88.98
61128;BME280;47013;42.664;23.242;2022-09-12T01:42:17;93879.03;;;14.00;89.38
61128;BME280;47013;42.664;23.242;2022-09-12T01:45:08;93869.75;;;13.98;88.58
61128;BME280;47013;42.664;23.242;2022-09-12T01:47:55;93866.94;;;14.01;87.72
61128;BME280;47013;42.664;23.242;2022-09-12T01:50:31;93861.66;;;13.78;88.68
61128;BME280;47013;42.664;23.242;2022-09-12T01:53:10;93860.06;;;13.48;89.13
61128;BME280;47013;42.664;23.242;2022-09-12T01:55:44;93864.81;;;13.27;89.99
61128;BME280;47013;42.664;23.242;2022-09-12T01:58:23;93854.59;;;13.15;91.21
61128;BME280;47013;42.664;23.242;2022-09-12T02:01:00;93858.13;;;13.12;90.38
61128;BME280;47013;42.664;23.242;2022-09-12T02:03:31;93858.69;;;13.23;90.74
61128;BME280;47013;42.664;23.242;2022-09-12T02:06:05;93860.22;;;13.41;91.14
61128;BME280;47013;42.664;23.242;2022-09-12T02:08:38;93867.91;;;13.46;90.74
61128;BME280;47013;42.664;23.242;2022-09-12T02:11:08;93866.19;;;13.52;89.65
61128;BME280;47013;42.664;23.242;2022-09-12T02:13:55;93868.50;;;13.53;88.28
61128;BME280;47013;42.664;23.242;2022-09-12T02:16:47;93862.47;;;13.30;87.69
61128;BME280;47013;42.664;23.242;2022-09-12T02:19:17;93863.22;;;13.30;89.06
61128;BME280;47013;42.664;23.242;2022-09-12T02:21:49;93863.66;;;13.45;89.42
61128;BME280;47013;42.664;23.242;2022-09-12T02:24:16;93854.88;;;13.37;87.75
61128;BME280;47013;42.664;23.242;2022-09-12T02:26:58;93860.41;;;13.50;87.77
61128;BME280;47013;42.664;23.242;2022-09-12T02:29:24;93861.09;;;13.54;87.12
61128;BME280;47013;42.664;23.242;2022-09-12T02:31:58;93868.91;;;13.52;87.52
61128;BME280;47013;42.664;23.242;2022-09-12T02:34:38;93864.50;;;13.58;86.57
61128;BME280;47013;42.664;23.242;2022-09-12T02:37:34;93857.44;;;13.61;86.93
61128;BME280;47013;42.664;23.242;2022-09-12T02:40:04;93860.50;;;13.63;86.21
61128;BME280;47013;42.664;23.242;2022-09-12T02:42:33;93854.28;;;13.46;86.47
61128;BME280;47013;42.664;23.242;2022-09-12T02:44:59;93855.81;;;13.47;87.15
61128;BME280;47013;42.664;23.242;2022-09-12T02:47:45;93864.41;;;13.45;87.17
61128;BME280;47013;42.664;23.242;2022-09-12T02:50:13;93865.25;;;13.26;87.75
61128;BME280;47013;42.664;23.242;2022-09-12T02:52:39;93866.63;;;13.14;88.46
61128;BME280;47013;42.664;23.242;2022-09-12T02:55:05;93868.91;;;13.19;88.36
61128;BME280;47013;42.664;23.242;2022-09-12T02:57:31;93871.38;;;13.30;88.71
61128;BME280;47013;42.664;23.242;2022-09-12T02:59:59;93863.03;;;13.21;88.32
61128;BME280;47013;42.664;23.242;2022-09-12T03:02:34;93869.09;;;13.28;88.94
61128;BME280;47013;42.664;23.242;2022-09-12T03:16:05;93868.66;;;13.46;87.53
61128;BME280;47013;42.664;23.242;2022-09-12T03:21:32;93885.34;;;13.48;87.59
61128;BME280;47013;42.664;23.242;2022-09-12T03:26:51;93873.34;;;13.46;88.11
61128;BME280;47013;42.664;23.242;2022-09-12T03:29:20;93868.34;;;13.44;87.79
61128;BME280;47013;42.664;23.242;2022-09-12T03:31:52;93885.78;;;13.47;88.11
61128;BME280;47013;42.664;23.242;2022-09-12T03:34:20;93875.38;;;13.25;88.49
61128;BME280;47013;42.664;23.242;2022-09-12T03:36:45;93876.06;;;13.30;88.14
61128;BME280;47013;42.664;23.242;2022-09-12T03:39:11;93875.22;;;13.33;88.65
61128;BME280;47013;42.664;23.242;2022-09-12T03:41:37;93873.84;;;13.24;88.98
61128;BME280;47013;42.664;23.242;2022-09-12T03:44:03;93869.44;;;13.31;88.82
61128;BME280;47013;42.664;23.242;2022-09-12T03:46:28;93865.44;;;13.35;88.75
61128;BME280;47013;42.664;23.242;2022-09-12T03:48:53;93869.34;;;13.34;88.50
61128;BME280;47013;42.664;23.242;2022-09-12T03:51:19;93876.16;;;13.42;88.42
61128;BME280;47013;42.664;23.242;2022-09-12T03:53:45;93872.31;;;13.40;87.54
61128;BME280;47013;42.664;23.242;2022-09-12T03:56:11;93872.69;;;13.42;87.95
61128;BME280;47013;42.664;23.242;2022-09-12T03:58:37;93870.22;;;13.11;90.25
61128;BME280;47013;42.664;23.242;2022-09-12T04:01:10;93876.34;;;13.15;90.17
61128;BME280;47013;42.664;23.242;2022-09-12T04:03:38;93861.41;;;13.23;90.41
61128;BME280;47013;42.664;23.242;2022-09-12T04:06:04;93871.88;;;13.25;90.81
61128;BME280;47013;42.664;23.242;2022-09-12T04:08:30;93879.91;;;13.32;90.38
61128;BME280;47013;42.664;23.242;2022-09-12T04:11:02;93884.09;;;13.17;89.99
61128;BME280;47013;42.664;23.242;2022-09-12T04:13:27;93877.06;;;13.19;90.56
61128;BME280;47013;42.664;23.242;2022-09-12T04:15:59;93888.63;;;13.23;90.30
61128;BME280;47013;42.664;23.242;2022-09-12T04:18:25;93888.84;;;13.33;90.54
61128;BME280;47013;42.664;23.242;2022-09-12T04:20:51;93883.91;;;13.44;89.97
61128;BME280;47013;42.664;23.242;2022-09-12T04:23:16;93881.34;;;13.53;89.35
61128;BME280;47013;42.664;23.242;2022-09-12T04:25:42;93883.47;;;13.62;88.54
61128;BME280;47013;42.664;23.242;2022-09-12T04:28:07;93892.25;;;13.69;88.35
61128;BME280;47013;42.664;23.242;2022-09-12T04:30:33;93888.78;;;13.69;88.07
61128;BME280;47013;42.664;23.242;2022-09-12T04:32:59;93893.94;;;13.79;87.71
61128;BME280;47013;42.664;23.242;2022-09-12T04:35:24;93903.31;;;13.78;86.97
61128;BME280;47013;42.664;23.242;2022-09-12T04:37:50;93888.91;;;13.78;86.64
61128;BME280;47013;42.664;23.242;2022-09-12T04:40:16;93901.44;;;13.92;86.59
61128;BME280;47013;42.664;23.242;2022-09-12T04:42:41;93897.44;;;13.96;87.09
61128;BME280;47013;42.664;23.242;2022-09-12T04:45:07;93902.81;;;13.83;87.07
61128;BME280;47013;42.664;23.242;2022-09-12T04:47:33;93897.16;;;13.91;86.10
61128;BME280;47013;42.664;23.242;2022-09-12T04:49:58;93906.06;;;13.95;85.86
61128;BME280;47013;42.664;23.242;2022-09-12T04:52:23;93908.84;;;13.91;84.91
61128;BME280;47013;42.664;23.242;2022-09-12T04:54:49;93901.44;;;13.92;85.96
61128;BME280;47013;42.664;23.242;2022-09-12T04:57:14;93906.13;;;13.91;86.63
61128;BME280;47013;42.664;23.242;2022-09-12T04:59:40;93909.63;;;14.08;86.32
61128;BME280;47013;42.664;23.242;2022-09-12T05:02:05;93919.06;;;14.20;85.77
61128;BME280;47013;42.664;23.242;2022-09-12T05:04:31;93904.53;;;14.68;90.40
61128;BME280;47013;42.664;23.242;2022-09-12T05:06:56;93907.53;;;14.73;80.92
61128;BME280;47013;42.664;23.242;2022-09-12T05:09:22;93918.22;;;14.81;81.72
61128;BME280;47013;42.664;23.242;2022-09-12T05:11:48;93913.97;;;14.80;81.25
61128;BME280;47013;42.664;23.242;2022-09-12T05:14:13;93913.09;;;14.83;80.31
61128;BME280;47013;42.664;23.242;2022-09-12T05:16:39;93910.91;;;14.78;80.67
61128;BME280;47013;42.664;23.242;2022-09-12T05:19:05;93908.00;;;14.85;80.09
61128;BME280;47013;42.664;23.242;2022-09-12T05:21:31;93909.53;;;14.98;80.36
61128;BME280;47013;42.664;23.242;2022-09-12T05:23:57;93905.69;;;14.96;80.31
61128;BME280;47013;42.664;23.242;2022-09-12T05:26:25;93906.91;;;14.95;79.68
61128;BME280;47013;42.664;23.242;2022-09-12T05:28:51;93904.63;;;15.06;79.56
61128;BME280;47013;42.664;23.242;2022-09-12T05:31:27;93902.16;;;15.12;79.36
61128;BME280;47013;42.664;23.242;2022-09-12T05:33:54;93911.44;;;15.27;78.74
61128;BME280;47013;42.664;23.242;2022-09-12T05:36:25;93913.75;;;15.41;78.04
61128;BME280;47013;42.664;23.242;2022-09-12T05:38:51;93907.06;;;15.29;79.45
61128;BME280;47013;42.664;23.242;2022-09-12T05:41:22;93903.47;;;15.45;78.30
61128;BME280;47013;42.664;23.242;2022-09-12T05:43:59;93905.09;;;15.55;77.01
61128;BME280;47013;42.664;23.242;2022-09-12T05:46:27;93908.19;;;15.70;77.03
61128;BME280;47013;42.664;23.242;2022-09-12T05:48:53;93902.41;;;15.68;76.44
61128;BME280;47013;42.664;23.242;2022-09-12T05:51:22;93905.31;;;15.86;76.14
61128;BME280;47013;42.664;23.242;2022-09-12T05:53:50;93905.63;;;16.01;75.70
61128;BME280;47013;42.664;23.242;2022-09-12T05:56:19;93888.38;;;15.91;75.10
61128;BME280;47013;42.664;23.242;2022-09-12T05:58:47;93900.53;;;15.90;75.55
61128;BME280;47013;42.664;23.242;2022-09-12T06:01:17;93894.09;;;15.72;74.35
61128;BME280;47013;42.664;23.242;2022-09-12T06:03:44;93885.22;;;15.55;74.57
61128;BME280;47013;42.664;23.242;2022-09-12T06:06:10;93892.44;;;15.61;75.05
61128;BME280;47013;42.664;23.242;2022-09-12T06:08:43;93887.31;;;15.63;75.63
61128;BME280;47013;42.664;23.242;2022-09-12T06:11:15;93889.19;;;15.67;74.20
61128;BME280;47013;42.664;23.242;2022-09-12T06:13:41;93891.13;;;15.79;74.41
61128;BME280;47013;42.664;23.242;2022-09-12T06:18:35;93887.63;;;15.91;74.25
61128;BME280;47013;42.664;23.242;2022-09-12T06:21:06;93887.94;;;15.93;74.87
61128;BME280;47013;42.664;23.242;2022-09-12T06:23:32;93897.06;;;16.12;71.99
61128;BME280;47013;42.664;23.242;2022-09-12T06:25:58;93898.41;;;16.07;71.67
61128;BME280;47013;42.664;23.242;2022-09-12T06:28:24;93894.59;;;16.05;72.58
61128;BME280;47013;42.664;23.242;2022-09-12T06:30:49;93900.72;;;15.96;73.35
61128;BME280;47013;42.664;23.242;2022-09-12T06:33:15;93895.38;;;15.92;73.17
61128;BME280;47013;42.664;23.242;2022-09-12T06:35:41;93899.81;;;16.12;73.37
61128;BME280;47013;42.664;23.242;2022-09-12T06:38:06;93911.13;;;16.36;72.83
61128;BME280;47013;42.664;23.242;2022-09-12T06:40:32;93913.06;;;16.48;71.59
61128;BME280;47013;42.664;23.242;2022-09-12T06:42:58;93913.19;;;16.66;72.23
61128;BME280;47013;42.664;23.242;2022-09-12T06:45:23;93915.13;;;16.78;71.11
61128;BME280;47013;42.664;23.242;2022-09-12T06:47:50;93929.13;;;16.93;71.33
61128;BME280;47013;42.664;23.242;2022-09-12T06:50:15;93919.59;;;16.85;70.76
61128;BME280;47013;42.664;23.242;2022-09-12T06:52:41;93917.31;;;16.84;69.85
61128;BME280;47013;42.664;23.242;2022-09-12T06:55:07;93922.81;;;16.84;69.73
61128;BME280;47013;42.664;23.242;2022-09-12T06:57:32;93920.81;;;16.84;70.15
61128;BME280;47013;42.664;23.242;2022-09-12T07:00:03;93924.63;;;16.87;70.48
61128;BME280;47013;42.664;23.242;2022-09-12T07:02:29;93930.69;;;16.82;70.67
61128;BME280;47013;42.664;23.242;2022-09-12T07:04:54;93927.44;;;16.74;69.74
61128;BME280;47013;42.664;23.242;2022-09-12T07:07:20;93925.53;;;16.84;70.02
61128;BME280;47013;42.664;23.242;2022-09-12T07:09:46;93932.16;;;16.95;69.39
61128;BME280;47013;42.664;23.242;2022-09-12T07:12:11;93933.25;;;17.20;69.58
61128;BME280;47013;42.664;23.242;2022-09-12T07:14:37;93936.66;;;17.33;66.72
61128;BME280;47013;42.664;23.242;2022-09-12T07:17:02;93941.28;;;17.45;66.23
61128;BME280;47013;42.664;23.242;2022-09-12T07:19:27;93937.91;;;17.41;66.41
61128;BME280;47013;42.664;23.242;2022-09-12T07:21:53;93940.59;;;17.63;66.47
61128;BME280;47013;42.664;23.242;2022-09-12T07:24:19;93948.16;;;17.72;64.92
61128;BME280;47013;42.664;23.242;2022-09-12T07:26:44;93949.88;;;17.87;64.07
61128;BME280;47013;42.664;23.242;2022-09-12T07:29:14;93940.94;;;18.05;62.76
61128;BME280;47013;42.664;23.242;2022-09-12T07:31:40;93945.13;;;18.28;62.70
61128;BME280;47013;42.664;23.242;2022-09-12T07:34:06;93941.28;;;18.16;61.35
61128;BME280;47013;42.664;23.242;2022-09-12T07:36:31;93950.28;;;18.17;62.21
61128;BME280;47013;42.664;23.242;2022-09-12T07:38:57;93945.25;;;18.15;62.79
61128;BME280;47013;42.664;23.242;2022-09-12T07:41:25;93949.94;;;18.06;61.92
61128;BME280;47013;42.664;23.242;2022-09-12T07:43:55;93932.38;;;17.94;62.67
61128;BME280;47013;42.664;23.242;2022-09-12T07:46:21;93937.78;;;18.16;63.39
61128;BME280;47013;42.664;23.242;2022-09-12T07:48:54;93942.69;;;18.30;62.87
61128;BME280;47013;42.664;23.242;2022-09-12T07:51:20;93940.38;;;18.28;59.20
61128;BME280;47013;42.664;23.242;2022-09-12T07:53:47;93937.78;;;18.34;59.76
61128;BME280;47013;42.664;23.242;2022-09-12T07:56:14;93941.94;;;18.39;60.49
61128;BME280;47013;42.664;23.242;2022-09-12T07:58:40;93935.09;;;18.52;58.67
61128;BME280;47013;42.664;23.242;2022-09-12T08:01:11;93943.44;;;18.49;60.52
61128;BME280;47013;42.664;23.242;2022-09-12T08:03:39;93929.59;;;18.43;59.38
61128;BME280;47013;42.664;23.242;2022-09-12T08:06:24;93940.88;;;18.45;60.50
61128;BME280;47013;42.664;23.242;2022-09-12T08:08:51;93945.16;;;18.55;58.82
61128;BME280;47013;42.664;23.242;2022-09-12T08:11:19;93935.41;;;18.73;60.14
61128;BME280;47013;42.664;23.242;2022-09-12T08:13:45;93941.84;;;18.88;58.21
61128;BME280;47013;42.664;23.242;2022-09-12T08:16:16;93936.03;;;18.95;57.90
61128;BME280;47013;42.664;23.242;2022-09-12T08:18:45;93947.31;;;19.15;56.73
61128;BME280;47013;42.664;23.242;2022-09-12T08:21:13;93942.72;;;19.31;55.64
61128;BME280;47013;42.664;23.242;2022-09-12T08:23:40;93947.75;;;19.32;55.80
61128;BME280;47013;42.664;23.242;2022-09-12T08:26:07;93945.75;;;19.42;56.44
61128;BME280;47013;42.664;23.242;2022-09-12T08:28:34;93954.28;;;19.44;56.55
61128;BME280;47013;42.664;23.242;2022-09-12T08:31:04;93948.16;;;19.40;54.29
61128;BME280;47013;42.664;23.242;2022-09-12T08:33:30;93936.69;;;19.51;56.25
61128;BME280;47013;42.664;23.242;2022-09-12T08:38:40;93941.78;;;19.34;55.72
61128;BME280;47013;42.664;23.242;2022-09-12T08:49:16;93937.03;;;19.43;56.49
61128;BME280;47013;42.664;23.242;2022-09-12T08:51:47;93941.91;;;19.39;54.37
61128;BME280;47013;42.664;23.242;2022-09-12T08:54:20;93927.09;;;19.37;54.14
61128;BME280;47013;42.664;23.242;2022-09-12T08:56:48;93936.22;;;19.70;53.88
61128;BME280;47013;42.664;23.242;2022-09-12T08:59:14;93933.56;;;19.85;52.40
61128;BME280;47013;42.664;23.242;2022-09-12T09:01:42;93933.47;;;20.03;51.66
61128;BME280;47013;42.664;23.242;2022-09-12T09:04:28;93927.66;;;20.35;52.22
61128;BME280;47013;42.664;23.242;2022-09-12T09:16:06;93920.84;;;20.69;49.65
61128;BME280;47013;42.664;23.242;2022-09-12T09:18:27;93920.38;;;20.70;50.12
61128;BME280;47013;42.664;23.242;2022-09-12T09:21:23;93910.81;;;20.80;48.18
61128;BME280;47013;42.664;23.242;2022-09-12T09:23:56;93927.00;;;21.02;48.83
61128;BME280;47013;42.664;23.242;2022-09-12T09:26:34;93904.19;;;20.87;49.32
61128;BME280;47013;42.664;23.242;2022-09-12T09:31:39;93907.41;;;20.85;50.31
61128;BME280;47013;42.664;23.242;2022-09-12T09:34:17;93915.91;;;21.11;49.30
61128;BME280;47013;42.664;23.242;2022-09-12T09:42:50;93902.63;;;21.39;47.13
61128;BME280;47013;42.664;23.242;2022-09-12T09:45:22;93908.97;;;21.60;48.03
61128;BME280;47013;42.664;23.242;2022-09-12T09:47:56;93899.00;;;21.63;47.58
61128;BME280;47013;42.664;23.242;2022-09-12T09:50:23;93902.50;;;21.78;46.36
61128;BME280;47013;42.664;23.242;2022-09-12T09:52:49;93899.00;;;21.77;47.45
61128;BME280;47013;42.664;23.242;2022-09-12T09:55:23;93894.19;;;21.93;46.80
61128;BME280;47013;42.664;23.242;2022-09-12T09:57:50;93897.16;;;21.89;47.40
61128;BME280;47013;42.664;23.242;2022-09-12T10:00:31;93899.06;;;21.83;47.26
61128;BME280;47013;42.664;23.242;2022-09-12T10:05:50;93886.34;;;21.56;46.34
61128;BME280;47013;42.664;23.242;2022-09-12T10:08:25;93891.31;;;21.52;47.54
61128;BME280;47013;42.664;23.242;2022-09-12T10:11:06;93889.97;;;21.62;47.48
61128;BME280;47013;42.664;23.242;2022-09-12T10:13:54;93893.59;;;21.39;47.39
61128;BME280;47013;42.664;23.242;2022-09-12T10:16:33;93884.28;;;21.36;47.27
61128;BME280;47013;42.664;23.242;2022-09-12T10:19:01;93885.66;;;21.02;47.75
61128;BME280;47013;42.664;23.242;2022-09-12T10:21:41;93883.66;;;20.88;49.24
61128;BME280;47013;42.664;23.242;2022-09-12T10:24:25;93890.06;;;21.24;48.36
61128;BME280;47013;42.664;23.242;2022-09-12T10:26:55;93880.16;;;21.02;48.88
61128;BME280;47013;42.664;23.242;2022-09-12T10:29:24;93882.66;;;21.44;47.48
61128;BME280;47013;42.664;23.242;2022-09-12T10:31:54;93888.31;;;21.70;48.27
61128;BME280;47013;42.664;23.242;2022-09-12T10:34:29;93894.03;;;21.82;45.51
61128;BME280;47013;42.664;23.242;2022-09-12T10:37:05;93895.81;;;21.85;46.32
61128;BME280;47013;42.664;23.242;2022-09-12T10:39:33;93879.84;;;21.89;45.97
61128;BME280;47013;42.664;23.242;2022-09-12T10:42:00;93880.13;;;21.91;45.81
61128;BME280;47013;42.664;23.242;2022-09-12T10:44:32;93876.69;;;21.81;45.02
61128;BME280;47013;42.664;23.242;2022-09-12T10:46:59;93873.28;;;21.71;46.33
61128;BME280;47013;42.664;23.242;2022-09-12T10:49:27;93882.88;;;21.91;46.40
61128;BME280;47013;42.664;23.242;2022-09-12T10:51:54;93881.06;;;21.88;46.24
61128;BME280;47013;42.664;23.242;2022-09-12T10:54:22;93879.22;;;21.64;45.21
61128;BME280;47013;42.664;23.242;2022-09-12T11:03:13;93876.00;;;21.36;44.72
61128;BME280;47013;42.664;23.242;2022-09-12T11:10:54;93886.84;;;22.04;44.79
61128;BME280;47013;42.664;23.242;2022-09-12T11:22:16;93882.38;;;22.07;43.70
61128;BME280;47013;42.664;23.242;2022-09-12T11:25:07;93881.78;;;22.18;44.42
61128;BME280;47013;42.664;23.242;2022-09-12T11:27:59;93885.50;;;22.00;45.47
61128;BME280;47013;42.664;23.242;2022-09-12T11:31:19;93876.53;;;22.05;45.28
61128;BME280;47013;42.664;23.242;2022-09-12T11:33:46;93876.59;;;21.90;45.38
61128;BME280;47013;42.664;23.242;2022-09-12T11:36:26;93871.72;;;21.35;47.61
61128;BME280;47013;42.664;23.242;2022-09-12T11:39:14;93874.09;;;21.28;48.79
61128;BME280;47013;42.664;23.242;2022-09-12T11:41:47;93885.66;;;21.17;49.24
61128;BME280;47013;42.664;23.242;2022-09-12T11:46:59;93888.94;;;21.30;46.88
61128;BME280;47013;42.664;23.242;2022-09-12T11:49:39;93889.22;;;21.32;47.80
61128;BME280;47013;42.664;23.242;2022-09-12T11:52:22;93882.72;;;21.20;47.02
61128;BME280;47013;42.664;23.242;2022-09-12T11:55:20;93877.13;;;21.00;48.22
61128;BME280;47013;42.664;23.242;2022-09-12T11:57:57;93877.53;;;20.69;48.53
61128;BME280;47013;42.664;23.242;2022-09-12T12:00:49;93877.53;;;20.69;49.13
61128;BME280;47013;42.664;23.242;2022-09-12T12:03:44;93872.88;;;20.60;47.20
61128;BME280;47013;42.664;23.242;2022-09-12T12:08:53;93868.78;;;20.32;47.01
61128;BME280;47013;42.664;23.242;2022-09-12T12:11:52;93867.59;;;20.24;47.80
61128;BME280;47013;42.664;23.242;2022-09-12T12:14:22;93866.88;;;20.14;47.90
61128;BME280;47013;42.664;23.242;2022-09-12T12:16:49;93854.41;;;20.04;47.88
61128;BME280;47013;42.664;23.242;2022-09-12T12:21:45;93855.16;;;20.04;48.46
61128;BME280;47013;42.664;23.242;2022-09-12T12:24:22;93857.81;;;19.99;48.93
61128;BME280;47013;42.664;23.242;2022-09-12T12:36:54;93850.50;;;19.96;48.14
61128;BME280;47013;42.664;23.242;2022-09-12T12:47:27;93863.53;;;19.53;49.80
61128;BME280;47013;42.664;23.242;2022-09-12T12:49:59;93874.56;;;19.35;50.04
61128;BME280;47013;42.664;23.242;2022-09-12T12:52:29;93869.91;;;19.17;50.45
61128;BME280;47013;42.664;23.242;2022-09-12T12:55:03;93866.53;;;19.13;51.48
61128;BME280;47013;42.664;23.242;2022-09-12T12:57:39;93876.16;;;19.18;51.77
61128;BME280;47013;42.664;23.242;2022-09-12T13:05:40;93871.72;;;19.20;52.69
61128;BME280;47013;42.664;23.242;2022-09-12T13:08:09;93869.91;;;19.17;52.33
61128;BME280;47013;42.664;23.242;2022-09-12T13:10:36;93867.94;;;19.08;52.96
61128;BME280;47013;42.664;23.242;2022-09-12T13:13:05;93864.13;;;18.97;53.32
61128;BME280;47013;42.664;23.242;2022-09-12T13:18:05;93863.84;;;18.95;54.11
61128;BME280;47013;42.664;23.242;2022-09-12T13:20:35;93863.25;;;18.91;54.78
61128;BME280;47013;42.664;23.242;2022-09-12T13:23:02;93858.22;;;18.89;54.45
61128;BME280;47013;42.664;23.242;2022-09-12T13:28:16;93850.09;;;18.95;55.17
61128;BME280;47013;42.664;23.242;2022-09-12T13:30:58;93846.28;;;19.01;55.53
61128;BME280;47013;42.664;23.242;2022-09-12T13:33:41;93851.31;;;18.94;54.95
61128;BME280;47013;42.664;23.242;2022-09-12T13:43:45;93840.81;;;19.77;50.54
61128;BME280;47013;42.664;23.242;2022-09-12T13:46:15;93842.63;;;20.03;50.35
61128;BME280;47013;42.664;23.242;2022-09-12T13:48:42;93842.09;;;20.38;50.77
61128;BME280;47013;42.664;23.242;2022-09-12T13:51:21;93844.19;;;20.67;48.93
61128;BME280;47013;42.664;23.242;2022-09-12T13:53:49;93855.41;;;20.78;49.37
61128;BME280;47013;42.664;23.242;2022-09-12T13:56:19;93859.31;;;20.72;45.47
61128;BME280;47013;42.664;23.242;2022-09-12T14:04:25;93850.53;;;20.35;46.40
61128;BME280;47013;42.664;23.242;2022-09-12T14:09:40;93844.00;;;20.32;46.58
61128;BME280;47013;42.664;23.242;2022-09-12T14:12:27;93832.28;;;20.22;45.83
61128;BME280;47013;42.664;23.242;2022-09-12T14:14:54;93829.75;;;20.10;46.41
61128;BME280;47013;42.664;23.242;2022-09-12T14:17:27;93836.31;;;20.12;46.83
61128;BME280;47013;42.664;23.242;2022-09-12T14:19:54;93837.22;;;20.18;47.51
61128;BME280;47013;42.664;23.242;2022-09-12T14:22:24;93843.00;;;20.20;46.71
61128;BME280;47013;42.664;23.242;2022-09-12T14:24:53;93843.75;;;20.21;47.03
61128;BME280;47013;42.664;23.242;2022-09-12T14:27:41;93847.66;;;20.29;47.96
61128;BME280;47013;42.664;23.242;2022-09-12T14:30:26;93849.94;;;20.30;47.11
61128;BME280;47013;42.664;23.242;2022-09-12T14:33:20;93843.81;;;20.12;47.98
61128;BME280;47013;42.664;23.242;2022-09-12T14:35:49;93841.88;;;20.03;48.01
61128;BME280;47013;42.664;23.242;2022-09-12T14:40:43;93846.75;;;20.08;48.80
61128;BME280;47013;42.664;23.242;2022-09-12T14:43:27;93840.19;;;20.06;49.44
61128;BME280;47013;42.664;23.242;2022-09-12T14:45:56;93838.06;;;20.00;49.11
61128;BME280;47013;42.664;23.242;2022-09-12T14:48:24;93849.88;;;19.92;48.85
61128;BME280;47013;42.664;23.242;2022-09-12T14:50:51;93856.69;;;19.82;49.54
61128;BME280;47013;42.664;23.242;2022-09-12T14:56:09;93855.31;;;19.44;50.35
61128;BME280;47013;42.664;23.242;2022-09-12T14:58:36;93862.06;;;19.34;51.41
61128;BME280;47013;42.664;23.242;2022-09-12T15:05:55;93859.09;;;19.04;51.39
61128;BME280;47013;42.664;23.242;2022-09-12T15:08:21;93849.81;;;18.93;52.22
61128;BME280;47013;42.664;23.242;2022-09-12T15:10:47;93861.38;;;18.88;52.64
61128;BME280;47013;42.664;23.242;2022-09-12T15:13:15;93861.44;;;18.78;52.91
61128;BME280;47013;42.664;23.242;2022-09-12T15:15:43;93858.06;;;18.56;53.62
61128;BME280;47013;42.664;23.242;2022-09-12T15:18:09;93855.59;;;18.58;53.93
61128;BME280;47013;42.664;23.242;2022-09-12T15:20:36;93856.53;;;18.55;54.30
61128;BME280;47013;42.664;23.242;2022-09-12T15:23:04;93865.53;;;18.55;53.65
61128;BME280;47013;42.664;23.242;2022-09-12T15:25:30;93860.19;;;18.52;54.00
61128;BME280;47013;42.664;23.242;2022-09-12T15:27:56;93855.91;;;18.33;54.51
61128;BME280;47013;42.664;23.242;2022-09-12T15:30:21;93863.38;;;18.32;54.61
61128;BME280;47013;42.664;23.242;2022-09-12T15:32:46;93858.22;;;18.25;54.95
61128;BME280;47013;42.664;23.242;2022-09-12T15:35:21;93852.53;;;18.19;54.23
61128;BME280;47013;42.664;23.242;2022-09-12T15:37:47;93857.28;;;18.19;54.19